Home   Weather   France   Istres   Past weeks
Flag for France

Past Weather in Istres, Bouches-du-Rhône, France — Yesterday and Last 2 Weeks

Currently: 50 °F. Clear. (Weather station: Istres Airport, France). See more current weather

Past Weather in Istres — Graph

°F

Istres Temperature Yesterday

Maximum temperature yesterday: 59 °F (at 11:00 am)
Minimum temperature yesterday: 46 °F (at 2:00 am)
Average temperature yesterday: 54 °F

High & Low Weather Summary for the Past Weeks

 TemperatureHumidityPressure
High82 °F (Apr 12, 5:00 pm)100% (Apr 9, 4:00 am)30.39 "Hg (Apr 9, 4:00 am)
Low43 °F (Apr 17, 5:30 am)19% (Apr 8, 6:00 pm)29.77 "Hg (Apr 8, 7:30 pm)
Average60 °F55%30.09 "Hg
* Reported Apr 6 12:00 am — Apr 21 12:00 am, Istres. Weather by CustomWeather, © 2024

Note: Actual official high and low records may vary slightly from our data, if they occured in-between our weather recording intervals... More about our weather records

Istres Weather History for the Previous 24 Hours

Scroll right to see more
 ConditionsComfort  
Time TempWeatherWind HumidityBarometerVisibility
12:00 am
Sun, Apr 21
52 °FClear.25 mph47%30.01 "Hg10 mi
11:30 pm
Sat, Apr 20
52 °FClear.33 mph47%29.98 "Hg10 mi
11:00 pm52 °FClear.25 mph47%30.01 "Hg10 mi
10:00 pm54 °FClear.23 mph41%30.01 "Hg10 mi
9:30 pm54 °FPassing clouds.17 mph41%30.01 "HgN/A
9:00 pm54 °FPassing clouds.13 mph41%30.01 "HgN/A
8:30 pm54 °FClear.30 mph38%29.98 "Hg10 mi
8:00 pm55 °FSunny.39 mph38%29.95 "Hg10 mi
7:00 pm57 °FSunny.35 mph33%29.95 "Hg10 mi
6:30 pm57 °FSunny.37 mph36%29.95 "Hg10 mi
6:00 pm59 °FSunny.37 mph34%29.95 "Hg10 mi
5:30 pm59 °FSunny.36 mph31%29.95 "Hg10 mi
5:00 pm59 °FSunny.35 mph31%29.95 "Hg10 mi
4:30 pm59 °FSunny.38 mph31%29.95 "Hg10 mi
4:00 pm59 °FSunny.35 mph34%29.98 "Hg10 mi
3:00 pm59 °FSunny.38 mph31%29.98 "Hg10 mi
2:30 pm59 °FSunny.35 mph34%29.98 "Hg10 mi
2:00 pm57 °FSunny.37 mph39%29.98 "Hg10 mi
1:30 pm57 °FSunny.30 mph39%29.98 "Hg10 mi
1:00 pm57 °FSunny.35 mph36%29.98 "Hg10 mi
12:30 pm57 °FSunny.31 mph39%29.98 "Hg10 mi
12:00 pm59 °FSunny.33 mph42%29.98 "Hg10 mi
11:30 am59 °FPassing clouds.33 mph39%29.98 "HgN/A
11:00 am59 °FPassing clouds.33 mph42%29.98 "HgN/A
10:30 am57 °FSunny.30 mph48%29.98 "Hg10 mi
10:00 am57 °FSunny.29 mph41%29.98 "Hg10 mi
9:30 am57 °FSunny.23 mph48%29.98 "Hg10 mi
9:00 am55 °FSunny.24 mph55%29.98 "Hg10 mi
8:30 am55 °FSunny.24 mph55%29.98 "Hg10 mi
8:00 am54 °FSunny.20 mph63%29.98 "Hg10 mi
7:30 am54 °FSunny.18 mph58%29.95 "Hg10 mi
7:00 am54 °FSunny.18 mph63%29.95 "Hg10 mi
6:30 am54 °FClear.17 mph67%29.95 "Hg10 mi
6:00 am55 °FClear.20 mph59%29.95 "Hg10 mi
5:30 am54 °FClear.17 mph63%29.95 "Hg10 mi
5:00 am46 °FClear.9 mph76%29.95 "Hg10 mi
4:30 am46 °FClear.12 mph76%29.95 "Hg10 mi
4:00 am48 °FClear.12 mph66%29.95 "Hg10 mi
3:30 am46 °FClear.12 mph71%29.95 "Hg10 mi
3:00 am48 °FClear.10 mph66%29.95 "Hg10 mi
2:30 am46 °FClear.8 mph76%29.98 "Hg10 mi
2:00 am46 °FClear.7 mph76%29.98 "Hg10 mi
1:30 am48 °FClear.8 mph76%29.98 "Hg10 mi
1:00 am48 °FClear.8 mph76%29.98 "Hg10 mi
Weather by CustomWeather, © 2024

See weather overview